sensor_id;sensor_type;location;lat;lon;timestamp;P1;durP1;ratioP1;P2;durP2;ratioP2
37065;SDS011;22981;43.080;25.550;2023-12-20T00:00:36;72.25;;;41.35;;
37065;SDS011;22981;43.080;25.550;2023-12-20T00:03:03;65.25;;;39.98;;
37065;SDS011;22981;43.080;25.550;2023-12-20T00:05:31;68.72;;;40.33;;
37065;SDS011;22981;43.080;25.550;2023-12-20T00:08:00;74.40;;;42.73;;
37065;SDS011;22981;43.080;25.550;2023-12-20T00:10:28;65.92;;;41.77;;
37065;SDS011;22981;43.080;25.550;2023-12-20T00:12:55;74.37;;;46.02;;
37065;SDS011;22981;43.080;25.550;2023-12-20T00:15:23;75.35;;;48.83;;
37065;SDS011;22981;43.080;25.550;2023-12-20T00:17:50;75.72;;;45.40;;
37065;SDS011;22981;43.080;25.550;2023-12-20T00:20:18;68.05;;;43.35;;
37065;SDS011;22981;43.080;25.550;2023-12-20T00:22:45;68.05;;;42.70;;
37065;SDS011;22981;43.080;25.550;2023-12-20T00:25:13;66.95;;;42.53;;
37065;SDS011;22981;43.080;25.550;2023-12-20T00:27:40;61.60;;;42.23;;
37065;SDS011;22981;43.080;25.550;2023-12-20T00:30:09;61.68;;;41.33;;
37065;SDS011;22981;43.080;25.550;2023-12-20T00:32:37;64.85;;;41.85;;
37065;SDS011;22981;43.080;25.550;2023-12-20T00:35:04;77.72;;;48.63;;
37065;SDS011;22981;43.080;25.550;2023-12-20T00:37:32;87.80;;;51.95;;
37065;SDS011;22981;43.080;25.550;2023-12-20T00:40:00;79.17;;;49.18;;
37065;SDS011;22981;43.080;25.550;2023-12-20T00:42:28;71.22;;;44.70;;
37065;SDS011;22981;43.080;25.550;2023-12-20T00:44:55;77.03;;;49.53;;
37065;SDS011;22981;43.080;25.550;2023-12-20T00:47:23;142.37;;;73.17;;
37065;SDS011;22981;43.080;25.550;2023-12-20T00:49:50;123.13;;;63.65;;
37065;SDS011;22981;43.080;25.550;2023-12-20T00:52:18;99.80;;;57.15;;
37065;SDS011;22981;43.080;25.550;2023-12-20T00:54:47;88.62;;;55.08;;
37065;SDS011;22981;43.080;25.550;2023-12-20T00:57:15;107.58;;;58.80;;
37065;SDS011;22981;43.080;25.550;2023-12-20T00:59:42;94.37;;;57.30;;
37065;SDS011;22981;43.080;25.550;2023-12-20T01:02:10;93.60;;;53.40;;
37065;SDS011;22981;43.080;25.550;2023-12-20T01:04:38;82.42;;;51.58;;
37065;SDS011;22981;43.080;25.550;2023-12-20T01:07:05;85.25;;;54.10;;
37065;SDS011;22981;43.080;25.550;2023-12-20T01:09:34;78.62;;;50.10;;
37065;SDS011;22981;43.080;25.550;2023-12-20T01:12:02;69.80;;;46.58;;
37065;SDS011;22981;43.080;25.550;2023-12-20T01:14:29;61.58;;;43.70;;
37065;SDS011;22981;43.080;25.550;2023-12-20T01:16:57;58.60;;;42.33;;
37065;SDS011;22981;43.080;25.550;2023-12-20T01:19:24;58.17;;;42.30;;
37065;SDS011;22981;43.080;25.550;2023-12-20T01:21:53;61.10;;;42.73;;
37065;SDS011;22981;43.080;25.550;2023-12-20T01:24:21;56.88;;;41.92;;
37065;SDS011;22981;43.080;25.550;2023-12-20T01:26:49;65.57;;;45.48;;
37065;SDS011;22981;43.080;25.550;2023-12-20T01:29:16;80.30;;;50.55;;
37065;SDS011;22981;43.080;25.550;2023-12-20T01:31:44;113.03;;;60.75;;
37065;SDS011;22981;43.080;25.550;2023-12-20T01:34:11;146.22;;;71.45;;
37065;SDS011;22981;43.080;25.550;2023-12-20T01:36:39;117.00;;;61.98;;
37065;SDS011;22981;43.080;25.550;2023-12-20T01:39:07;104.92;;;58.68;;
37065;SDS011;22981;43.080;25.550;2023-12-20T01:41:34;92.35;;;54.80;;
37065;SDS011;22981;43.080;25.550;2023-12-20T01:44:02;94.47;;;59.55;;
37065;SDS011;22981;43.080;25.550;2023-12-20T01:46:29;104.58;;;67.55;;
37065;SDS011;22981;43.080;25.550;2023-12-20T01:48:57;83.37;;;57.27;;
37065;SDS011;22981;43.080;25.550;2023-12-20T01:51:25;69.70;;;47.50;;
37065;SDS011;22981;43.080;25.550;2023-12-20T01:53:54;65.95;;;44.63;;
37065;SDS011;22981;43.080;25.550;2023-12-20T01:56:24;67.12;;;45.10;;
37065;SDS011;22981;43.080;25.550;2023-12-20T01:58:52;62.93;;;42.00;;
37065;SDS011;22981;43.080;25.550;2023-12-20T02:01:21;62.48;;;39.05;;
37065;SDS011;22981;43.080;25.550;2023-12-20T02:03:49;59.20;;;39.40;;
37065;SDS011;22981;43.080;25.550;2023-12-20T02:06:18;51.58;;;35.80;;
37065;SDS011;22981;43.080;25.550;2023-12-20T02:08:47;50.75;;;36.93;;
37065;SDS011;22981;43.080;25.550;2023-12-20T02:11:16;54.70;;;37.00;;
37065;SDS011;22981;43.080;25.550;2023-12-20T02:13:43;55.35;;;38.73;;
37065;SDS011;22981;43.080;25.550;2023-12-20T02:16:11;60.60;;;39.98;;
37065;SDS011;22981;43.080;25.550;2023-12-20T02:18:39;64.60;;;42.48;;
37065;SDS011;22981;43.080;25.550;2023-12-20T02:21:08;63.28;;;42.25;;
37065;SDS011;22981;43.080;25.550;2023-12-20T02:23:36;60.00;;;39.65;;
37065;SDS011;22981;43.080;25.550;2023-12-20T02:26:04;66.02;;;41.95;;
37065;SDS011;22981;43.080;25.550;2023-12-20T02:28:32;85.87;;;46.05;;
37065;SDS011;22981;43.080;25.550;2023-12-20T02:31:01;83.33;;;45.52;;
37065;SDS011;22981;43.080;25.550;2023-12-20T02:33:28;87.42;;;46.28;;
37065;SDS011;22981;43.080;25.550;2023-12-20T02:35:56;120.02;;;51.42;;
37065;SDS011;22981;43.080;25.550;2023-12-20T02:38:23;84.60;;;49.13;;
37065;SDS011;22981;43.080;25.550;2023-12-20T02:40:51;91.32;;;50.73;;
37065;SDS011;22981;43.080;25.550;2023-12-20T02:43:18;113.50;;;57.93;;
37065;SDS011;22981;43.080;25.550;2023-12-20T02:45:46;97.95;;;50.85;;
37065;SDS011;22981;43.080;25.550;2023-12-20T02:48:13;87.55;;;46.68;;
37065;SDS011;22981;43.080;25.550;2023-12-20T02:50:41;86.15;;;47.55;;
37065;SDS011;22981;43.080;25.550;2023-12-20T02:53:09;93.58;;;48.83;;
37065;SDS011;22981;43.080;25.550;2023-12-20T02:55:36;92.75;;;50.20;;
37065;SDS011;22981;43.080;25.550;2023-12-20T02:58:04;84.13;;;46.50;;
37065;SDS011;22981;43.080;25.550;2023-12-20T03:00:31;86.95;;;48.50;;
37065;SDS011;22981;43.080;25.550;2023-12-20T03:02:59;83.75;;;47.48;;
37065;SDS011;22981;43.080;25.550;2023-12-20T03:05:27;82.00;;;47.80;;
37065;SDS011;22981;43.080;25.550;2023-12-20T03:07:54;91.08;;;48.05;;
37065;SDS011;22981;43.080;25.550;2023-12-20T03:10:22;79.95;;;44.83;;
37065;SDS011;22981;43.080;25.550;2023-12-20T03:12:50;78.83;;;43.23;;
37065;SDS011;22981;43.080;25.550;2023-12-20T03:15:17;76.30;;;43.98;;
37065;SDS011;22981;43.080;25.550;2023-12-20T03:17:45;74.97;;;43.35;;
37065;SDS011;22981;43.080;25.550;2023-12-20T03:20:12;77.67;;;44.73;;
37065;SDS011;22981;43.080;25.550;2023-12-20T03:22:40;78.10;;;43.50;;
37065;SDS011;22981;43.080;25.550;2023-12-20T03:25:07;72.92;;;42.48;;
37065;SDS011;22981;43.080;25.550;2023-12-20T03:27:37;72.12;;;43.17;;
37065;SDS011;22981;43.080;25.550;2023-12-20T03:30:07;71.40;;;41.20;;
37065;SDS011;22981;43.080;25.550;2023-12-20T03:32:35;68.12;;;39.45;;
37065;SDS011;22981;43.080;25.550;2023-12-20T03:35:03;87.00;;;40.05;;
37065;SDS011;22981;43.080;25.550;2023-12-20T03:37:31;63.13;;;37.65;;
37065;SDS011;22981;43.080;25.550;2023-12-20T03:39:59;69.12;;;41.63;;
37065;SDS011;22981;43.080;25.550;2023-12-20T03:42:26;71.28;;;43.28;;
37065;SDS011;22981;43.080;25.550;2023-12-20T03:44:54;71.30;;;40.63;;
37065;SDS011;22981;43.080;25.550;2023-12-20T03:47:21;68.78;;;41.53;;
37065;SDS011;22981;43.080;25.550;2023-12-20T03:49:49;63.85;;;39.18;;
37065;SDS011;22981;43.080;25.550;2023-12-20T03:52:16;69.75;;;41.63;;
37065;SDS011;22981;43.080;25.550;2023-12-20T03:54:44;67.95;;;40.38;;
37065;SDS011;22981;43.080;25.550;2023-12-20T03:57:11;72.78;;;42.93;;
37065;SDS011;22981;43.080;25.550;2023-12-20T03:59:39;82.40;;;45.38;;
37065;SDS011;22981;43.080;25.550;2023-12-20T04:02:06;82.50;;;45.33;;
37065;SDS011;22981;43.080;25.550;2023-12-20T04:04:34;79.10;;;41.98;;
37065;SDS011;22981;43.080;25.550;2023-12-20T04:07:02;76.42;;;44.20;;
37065;SDS011;22981;43.080;25.550;2023-12-20T04:09:29;77.87;;;43.13;;
37065;SDS011;22981;43.080;25.550;2023-12-20T04:11:57;83.25;;;44.30;;
37065;SDS011;22981;43.080;25.550;2023-12-20T04:14:24;73.97;;;41.30;;
37065;SDS011;22981;43.080;25.550;2023-12-20T04:16:52;64.10;;;39.38;;
37065;SDS011;22981;43.080;25.550;2023-12-20T04:19:20;72.03;;;41.63;;
37065;SDS011;22981;43.080;25.550;2023-12-20T04:21:47;83.17;;;45.52;;
37065;SDS011;22981;43.080;25.550;2023-12-20T04:24:15;114.42;;;59.25;;
37065;SDS011;22981;43.080;25.550;2023-12-20T04:26:42;109.90;;;52.10;;
37065;SDS011;22981;43.080;25.550;2023-12-20T04:29:10;93.37;;;48.68;;
37065;SDS011;22981;43.080;25.550;2023-12-20T04:31:38;87.92;;;47.38;;
37065;SDS011;22981;43.080;25.550;2023-12-20T04:34:05;78.05;;;43.60;;
37065;SDS011;22981;43.080;25.550;2023-12-20T04:36:33;80.35;;;43.75;;
37065;SDS011;22981;43.080;25.550;2023-12-20T04:39:01;81.90;;;43.87;;
37065;SDS011;22981;43.080;25.550;2023-12-20T04:41:28;75.90;;;43.13;;
37065;SDS011;22981;43.080;25.550;2023-12-20T04:43:56;77.32;;;43.05;;
37065;SDS011;22981;43.080;25.550;2023-12-20T04:46:23;75.42;;;42.75;;
37065;SDS011;22981;43.080;25.550;2023-12-20T04:48:51;63.63;;;38.05;;
37065;SDS011;22981;43.080;25.550;2023-12-20T04:51:18;57.08;;;35.98;;
37065;SDS011;22981;43.080;25.550;2023-12-20T04:53:46;57.43;;;38.00;;
37065;SDS011;22981;43.080;25.550;2023-12-20T04:56:14;66.07;;;40.63;;
37065;SDS011;22981;43.080;25.550;2023-12-20T04:58:42;67.95;;;39.08;;
37065;SDS011;22981;43.080;25.550;2023-12-20T05:01:09;66.15;;;40.55;;
37065;SDS011;22981;43.080;25.550;2023-12-20T05:03:37;78.83;;;43.87;;
37065;SDS011;22981;43.080;25.550;2023-12-20T05:06:05;87.00;;;48.48;;
37065;SDS011;22981;43.080;25.550;2023-12-20T05:08:32;71.47;;;39.35;;
37065;SDS011;22981;43.080;25.550;2023-12-20T05:11:00;72.70;;;41.18;;
37065;SDS011;22981;43.080;25.550;2023-12-20T05:13:28;75.03;;;42.93;;
37065;SDS011;22981;43.080;25.550;2023-12-20T05:15:55;86.10;;;45.35;;
37065;SDS011;22981;43.080;25.550;2023-12-20T05:18:23;129.38;;;63.70;;
37065;SDS011;22981;43.080;25.550;2023-12-20T05:20:50;81.65;;;47.75;;
37065;SDS011;22981;43.080;25.550;2023-12-20T05:23:19;71.70;;;40.20;;
37065;SDS011;22981;43.080;25.550;2023-12-20T05:25:46;73.85;;;43.13;;
37065;SDS011;22981;43.080;25.550;2023-12-20T05:28:15;75.78;;;44.30;;
37065;SDS011;22981;43.080;25.550;2023-12-20T05:30:42;80.35;;;45.33;;
37065;SDS011;22981;43.080;25.550;2023-12-20T05:33:10;84.07;;;48.02;;
37065;SDS011;22981;43.080;25.550;2023-12-20T05:35:39;87.30;;;51.05;;
37065;SDS011;22981;43.080;25.550;2023-12-20T05:38:07;101.78;;;55.10;;
37065;SDS011;22981;43.080;25.550;2023-12-20T05:40:34;72.27;;;44.10;;
37065;SDS011;22981;43.080;25.550;2023-12-20T05:43:02;70.40;;;42.43;;
37065;SDS011;22981;43.080;25.550;2023-12-20T05:45:30;74.35;;;48.30;;
37065;SDS011;22981;43.080;25.550;2023-12-20T05:47:57;70.12;;;43.15;;
37065;SDS011;22981;43.080;25.550;2023-12-20T05:50:25;59.70;;;39.58;;
37065;SDS011;22981;43.080;25.550;2023-12-20T05:52:52;60.10;;;37.70;;
37065;SDS011;22981;43.080;25.550;2023-12-20T05:55:20;75.60;;;46.63;;
37065;SDS011;22981;43.080;25.550;2023-12-20T05:57:48;83.55;;;51.33;;
37065;SDS011;22981;43.080;25.550;2023-12-20T06:00:16;89.70;;;51.88;;
37065;SDS011;22981;43.080;25.550;2023-12-20T06:02:44;89.87;;;52.27;;
37065;SDS011;22981;43.080;25.550;2023-12-20T06:05:11;99.97;;;56.80;;
37065;SDS011;22981;43.080;25.550;2023-12-20T06:07:39;86.30;;;52.20;;
37065;SDS011;22981;43.080;25.550;2023-12-20T06:10:06;83.40;;;50.73;;
37065;SDS011;22981;43.080;25.550;2023-12-20T06:12:34;103.70;;;59.00;;
37065;SDS011;22981;43.080;25.550;2023-12-20T06:15:02;99.05;;;55.63;;
37065;SDS011;22981;43.080;25.550;2023-12-20T06:17:31;83.37;;;50.48;;
37065;SDS011;22981;43.080;25.550;2023-12-20T06:20:00;88.70;;;53.63;;
37065;SDS011;22981;43.080;25.550;2023-12-20T06:22:30;86.67;;;53.15;;
37065;SDS011;22981;43.080;25.550;2023-12-20T06:24:57;85.38;;;51.65;;
37065;SDS011;22981;43.080;25.550;2023-12-20T06:27:25;98.33;;;55.75;;
37065;SDS011;22981;43.080;25.550;2023-12-20T06:29:53;82.88;;;48.38;;
37065;SDS011;22981;43.080;25.550;2023-12-20T06:32:20;80.77;;;47.05;;
37065;SDS011;22981;43.080;25.550;2023-12-20T06:34:49;115.40;;;61.50;;
37065;SDS011;22981;43.080;25.550;2023-12-20T06:37:16;122.98;;;66.28;;
37065;SDS011;22981;43.080;25.550;2023-12-20T06:39:44;126.87;;;69.27;;
37065;SDS011;22981;43.080;25.550;2023-12-20T06:42:12;123.25;;;70.08;;
37065;SDS011;22981;43.080;25.550;2023-12-20T06:44:40;119.72;;;71.35;;
37065;SDS011;22981;43.080;25.550;2023-12-20T06:47:07;155.93;;;89.95;;
37065;SDS011;22981;43.080;25.550;2023-12-20T06:49:35;119.85;;;69.12;;
37065;SDS011;22981;43.080;25.550;2023-12-20T06:52:03;126.42;;;74.03;;
37065;SDS011;22981;43.080;25.550;2023-12-20T06:54:30;130.52;;;77.60;;
37065;SDS011;22981;43.080;25.550;2023-12-20T06:56:59;112.05;;;70.72;;
37065;SDS011;22981;43.080;25.550;2023-12-20T06:59:28;236.35;;;73.92;;
37065;SDS011;22981;43.080;25.550;2023-12-20T07:01:56;110.05;;;65.55;;
37065;SDS011;22981;43.080;25.550;2023-12-20T07:04:24;97.05;;;60.70;;
37065;SDS011;22981;43.080;25.550;2023-12-20T07:06:51;90.67;;;56.35;;
37065;SDS011;22981;43.080;25.550;2023-12-20T07:09:20;89.67;;;58.50;;
37065;SDS011;22981;43.080;25.550;2023-12-20T07:11:48;96.65;;;60.20;;
37065;SDS011;22981;43.080;25.550;2023-12-20T07:14:15;94.35;;;63.02;;
37065;SDS011;22981;43.080;25.550;2023-12-20T07:16:43;84.25;;;56.50;;
37065;SDS011;22981;43.080;25.550;2023-12-20T07:19:10;83.92;;;56.73;;
37065;SDS011;22981;43.080;25.550;2023-12-20T07:21:38;92.02;;;57.30;;
37065;SDS011;22981;43.080;25.550;2023-12-20T07:24:06;87.35;;;55.58;;
37065;SDS011;22981;43.080;25.550;2023-12-20T07:26:34;85.45;;;55.43;;
37065;SDS011;22981;43.080;25.550;2023-12-20T07:29:03;82.00;;;55.58;;
37065;SDS011;22981;43.080;25.550;2023-12-20T07:31:31;91.10;;;60.10;;
37065;SDS011;22981;43.080;25.550;2023-12-20T07:33:58;93.15;;;59.90;;
37065;SDS011;22981;43.080;25.550;2023-12-20T07:36:26;100.53;;;67.37;;
37065;SDS011;22981;43.080;25.550;2023-12-20T07:38:53;95.75;;;62.48;;
37065;SDS011;22981;43.080;25.550;2023-12-20T07:41:21;96.82;;;64.70;;
37065;SDS011;22981;43.080;25.550;2023-12-20T07:43:49;95.53;;;63.95;;
37065;SDS011;22981;43.080;25.550;2023-12-20T07:46:16;107.63;;;70.50;;
37065;SDS011;22981;43.080;25.550;2023-12-20T07:48:46;101.10;;;64.25;;
37065;SDS011;22981;43.080;25.550;2023-12-20T07:51:13;95.72;;;63.15;;
37065;SDS011;22981;43.080;25.550;2023-12-20T07:53:41;90.07;;;60.88;;
37065;SDS011;22981;43.080;25.550;2023-12-20T07:56:18;98.62;;;65.17;;
37065;SDS011;22981;43.080;25.550;2023-12-20T07:58:46;133.00;;;82.08;;
37065;SDS011;22981;43.080;25.550;2023-12-20T08:01:15;171.70;;;96.30;;
37065;SDS011;22981;43.080;25.550;2023-12-20T08:03:44;86.28;;;56.58;;
37065;SDS011;22981;43.080;25.550;2023-12-20T08:06:12;89.72;;;58.40;;
37065;SDS011;22981;43.080;25.550;2023-12-20T08:08:39;88.12;;;55.80;;
37065;SDS011;22981;43.080;25.550;2023-12-20T08:11:07;85.30;;;55.90;;
37065;SDS011;22981;43.080;25.550;2023-12-20T08:13:34;76.57;;;52.80;;
37065;SDS011;22981;43.080;25.550;2023-12-20T08:16:02;68.78;;;50.00;;
37065;SDS011;22981;43.080;25.550;2023-12-20T08:18:30;68.12;;;49.60;;
37065;SDS011;22981;43.080;25.550;2023-12-20T08:20:57;66.30;;;46.98;;
37065;SDS011;22981;43.080;25.550;2023-12-20T08:23:25;53.73;;;38.15;;
37065;SDS011;22981;43.080;25.550;2023-12-20T08:25:53;49.08;;;35.45;;
37065;SDS011;22981;43.080;25.550;2023-12-20T08:28:20;41.55;;;30.82;;
37065;SDS011;22981;43.080;25.550;2023-12-20T08:30:48;44.55;;;33.05;;
37065;SDS011;22981;43.080;25.550;2023-12-20T08:33:18;42.20;;;30.95;;
37065;SDS011;22981;43.080;25.550;2023-12-20T08:35:45;40.55;;;27.87;;
37065;SDS011;22981;43.080;25.550;2023-12-20T08:38:13;39.88;;;28.07;;
37065;SDS011;22981;43.080;25.550;2023-12-20T08:40:40;41.15;;;27.80;;
37065;SDS011;22981;43.080;25.550;2023-12-20T08:43:08;37.85;;;27.73;;
37065;SDS011;22981;43.080;25.550;2023-12-20T08:45:35;37.35;;;26.77;;
37065;SDS011;22981;43.080;25.550;2023-12-20T08:48:04;34.43;;;26.33;;
37065;SDS011;22981;43.080;25.550;2023-12-20T08:50:33;38.15;;;28.12;;
37065;SDS011;22981;43.080;25.550;2023-12-20T08:53:00;37.60;;;28.50;;
37065;SDS011;22981;43.080;25.550;2023-12-20T08:55:28;38.95;;;28.62;;
37065;SDS011;22981;43.080;25.550;2023-12-20T08:57:56;31.37;;;23.95;;
37065;SDS011;22981;43.080;25.550;2023-12-20T09:00:24;23.27;;;17.57;;
37065;SDS011;22981;43.080;25.550;2023-12-20T09:02:54;20.95;;;15.90;;
37065;SDS011;22981;43.080;25.550;2023-12-20T09:05:21;18.05;;;14.15;;
37065;SDS011;22981;43.080;25.550;2023-12-20T09:07:49;19.77;;;13.05;;
37065;SDS011;22981;43.080;25.550;2023-12-20T09:10:17;13.72;;;10.88;;
37065;SDS011;22981;43.080;25.550;2023-12-20T09:12:46;13.85;;;11.00;;
37065;SDS011;22981;43.080;25.550;2023-12-20T09:15:13;12.53;;;10.10;;
37065;SDS011;22981;43.080;25.550;2023-12-20T09:17:41;15.35;;;11.40;;
37065;SDS011;22981;43.080;25.550;2023-12-20T09:20:09;15.60;;;11.18;;
37065;SDS011;22981;43.080;25.550;2023-12-20T09:22:38;12.65;;;9.50;;
37065;SDS011;22981;43.080;25.550;2023-12-20T09:25:07;8.38;;;6.83;;
37065;SDS011;22981;43.080;25.550;2023-12-20T09:27:36;9.65;;;7.28;;
37065;SDS011;22981;43.080;25.550;2023-12-20T09:30:03;15.40;;;11.25;;
37065;SDS011;22981;43.080;25.550;2023-12-20T09:32:31;12.68;;;9.18;;
37065;SDS011;22981;43.080;25.550;2023-12-20T09:34:59;14.43;;;10.10;;
37065;SDS011;22981;43.080;25.550;2023-12-20T09:37:27;12.23;;;9.88;;
37065;SDS011;22981;43.080;25.550;2023-12-20T09:39:54;13.45;;;9.43;;
37065;SDS011;22981;43.080;25.550;2023-12-20T09:42:29;17.62;;;10.55;;
37065;SDS011;22981;43.080;25.550;2023-12-20T09:45:05;12.18;;;8.90;;
37065;SDS011;22981;43.080;25.550;2023-12-20T09:47:35;11.38;;;8.55;;
37065;SDS011;22981;43.080;25.550;2023-12-20T09:50:03;14.25;;;9.73;;
37065;SDS011;22981;43.080;25.550;2023-12-20T09:52:31;12.37;;;9.80;;
37065;SDS011;22981;43.080;25.550;2023-12-20T09:55:01;12.68;;;9.45;;
37065;SDS011;22981;43.080;25.550;2023-12-20T09:57:31;14.35;;;9.85;;
37065;SDS011;22981;43.080;25.550;2023-12-20T10:00:00;13.35;;;8.90;;
37065;SDS011;22981;43.080;25.550;2023-12-20T10:02:29;10.95;;;8.28;;
37065;SDS011;22981;43.080;25.550;2023-12-20T10:04:58;12.00;;;9.15;;
37065;SDS011;22981;43.080;25.550;2023-12-20T10:07:27;11.28;;;8.78;;
37065;SDS011;22981;43.080;25.550;2023-12-20T10:09:55;9.08;;;7.60;;
37065;SDS011;22981;43.080;25.550;2023-12-20T10:12:23;11.25;;;8.63;;
37065;SDS011;22981;43.080;25.550;2023-12-20T10:14:50;10.45;;;8.23;;
37065;SDS011;22981;43.080;25.550;2023-12-20T10:17:18;14.60;;;9.05;;
37065;SDS011;22981;43.080;25.550;2023-12-20T10:19:47;13.70;;;9.88;;
37065;SDS011;22981;43.080;25.550;2023-12-20T10:22:14;14.03;;;9.70;;
37065;SDS011;22981;43.080;25.550;2023-12-20T10:24:42;13.13;;;10.65;;
37065;SDS011;22981;43.080;25.550;2023-12-20T10:27:09;16.23;;;9.55;;
37065;SDS011;22981;43.080;25.550;2023-12-20T10:29:37;13.62;;;11.40;;
37065;SDS011;22981;43.080;25.550;2023-12-20T10:32:25;12.93;;;10.63;;
37065;SDS011;22981;43.080;25.550;2023-12-20T10:34:54;15.72;;;11.40;;
37065;SDS011;22981;43.080;25.550;2023-12-20T10:37:22;13.88;;;10.85;;
37065;SDS011;22981;43.080;25.550;2023-12-20T10:39:51;12.35;;;10.18;;
37065;SDS011;22981;43.080;25.550;2023-12-20T10:42:31;11.45;;;9.83;;
37065;SDS011;22981;43.080;25.550;2023-12-20T10:44:53;15.53;;;12.03;;
37065;SDS011;22981;43.080;25.550;2023-12-20T10:47:21;15.43;;;12.07;;
37065;SDS011;22981;43.080;25.550;2023-12-20T10:49:52;13.78;;;11.95;;
37065;SDS011;22981;43.080;25.550;2023-12-20T10:52:22;13.53;;;11.08;;
37065;SDS011;22981;43.080;25.550;2023-12-20T10:54:53;17.65;;;11.68;;
37065;SDS011;22981;43.080;25.550;2023-12-20T10:57:20;20.32;;;12.30;;
37065;SDS011;22981;43.080;25.550;2023-12-20T10:59:49;15.32;;;11.45;;
37065;SDS011;22981;43.080;25.550;2023-12-20T11:02:20;15.38;;;12.18;;
37065;SDS011;22981;43.080;25.550;2023-12-20T11:05:10;15.43;;;12.37;;
37065;SDS011;22981;43.080;25.550;2023-12-20T11:07:46;15.48;;;11.73;;
37065;SDS011;22981;43.080;25.550;2023-12-20T11:10:36;19.62;;;11.83;;
37065;SDS011;22981;43.080;25.550;2023-12-20T11:13:20;17.90;;;11.78;;
37065;SDS011;22981;43.080;25.550;2023-12-20T11:15:45;15.70;;;10.90;;
37065;SDS011;22981;43.080;25.550;2023-12-20T11:18:12;14.25;;;10.20;;
37065;SDS011;22981;43.080;25.550;2023-12-20T11:20:41;18.07;;;13.13;;
37065;SDS011;22981;43.080;25.550;2023-12-20T11:23:09;17.25;;;12.73;;
37065;SDS011;22981;43.080;25.550;2023-12-20T11:25:52;16.02;;;11.70;;
37065;SDS011;22981;43.080;25.550;2023-12-20T11:28:24;17.20;;;12.13;;
37065;SDS011;22981;43.080;25.550;2023-12-20T11:30:56;12.23;;;8.20;;
37065;SDS011;22981;43.080;25.550;2023-12-20T11:33:31;11.00;;;7.67;;
37065;SDS011;22981;43.080;25.550;2023-12-20T11:36:03;11.95;;;7.97;;
37065;SDS011;22981;43.080;25.550;2023-12-20T11:38:36;9.23;;;7.03;;
37065;SDS011;22981;43.080;25.550;2023-12-20T11:41:05;8.98;;;6.72;;
37065;SDS011;22981;43.080;25.550;2023-12-20T11:43:36;10.55;;;7.50;;
37065;SDS011;22981;43.080;25.550;2023-12-20T11:46:05;9.90;;;6.20;;
37065;SDS011;22981;43.080;25.550;2023-12-20T11:48:38;10.88;;;8.48;;
37065;SDS011;22981;43.080;25.550;2023-12-20T11:51:15;11.40;;;9.23;;
37065;SDS011;22981;43.080;25.550;2023-12-20T11:53:39;12.47;;;8.55;;
37065;SDS011;22981;43.080;25.550;2023-12-20T11:56:09;10.95;;;7.85;;
37065;SDS011;22981;43.080;25.550;2023-12-20T11:58:37;12.82;;;8.78;;
37065;SDS011;22981;43.080;25.550;2023-12-20T12:01:05;10.45;;;8.50;;
37065;SDS011;22981;43.080;25.550;2023-12-20T12:03:36;12.78;;;9.05;;
37065;SDS011;22981;43.080;25.550;2023-12-20T12:06:03;11.43;;;8.45;;
37065;SDS011;22981;43.080;25.550;2023-12-20T12:08:31;9.53;;;8.25;;
37065;SDS011;22981;43.080;25.550;2023-12-20T12:10:59;13.13;;;9.60;;
37065;SDS011;22981;43.080;25.550;2023-12-20T12:13:26;13.80;;;10.65;;
37065;SDS011;22981;43.080;25.550;2023-12-20T12:15:54;15.53;;;10.75;;
37065;SDS011;22981;43.080;25.550;2023-12-20T12:18:22;14.43;;;10.78;;
37065;SDS011;22981;43.080;25.550;2023-12-20T12:20:49;15.15;;;10.70;;
37065;SDS011;22981;43.080;25.550;2023-12-20T12:23:24;15.08;;;12.00;;
37065;SDS011;22981;43.080;25.550;2023-12-20T12:25:52;11.73;;;8.83;;
37065;SDS011;22981;43.080;25.550;2023-12-20T12:28:21;11.65;;;7.97;;
37065;SDS011;22981;43.080;25.550;2023-12-20T12:30:56;8.70;;;6.70;;
37065;SDS011;22981;43.080;25.550;2023-12-20T12:33:25;8.68;;;6.40;;
37065;SDS011;22981;43.080;25.550;2023-12-20T12:35:53;9.28;;;6.58;;
37065;SDS011;22981;43.080;25.550;2023-12-20T12:38:21;7.87;;;6.15;;
37065;SDS011;22981;43.080;25.550;2023-12-20T12:40:50;12.23;;;6.65;;
37065;SDS011;22981;43.080;25.550;2023-12-20T12:43:19;32.58;;;15.58;;
37065;SDS011;22981;43.080;25.550;2023-12-20T12:45:48;19.95;;;10.00;;
37065;SDS011;22981;43.080;25.550;2023-12-20T12:48:16;8.68;;;5.75;;
37065;SDS011;22981;43.080;25.550;2023-12-20T12:50:45;7.17;;;5.33;;
37065;SDS011;22981;43.080;25.550;2023-12-20T12:53:13;8.90;;;5.75;;
37065;SDS011;22981;43.080;25.550;2023-12-20T12:55:40;7.75;;;5.87;;
37065;SDS011;22981;43.080;25.550;2023-12-20T12:58:08;9.75;;;5.83;;
37065;SDS011;22981;43.080;25.550;2023-12-20T13:00:36;8.55;;;6.47;;
37065;SDS011;22981;43.080;25.550;2023-12-20T13:03:03;7.78;;;6.05;;
37065;SDS011;22981;43.080;25.550;2023-12-20T13:05:31;10.08;;;5.92;;
37065;SDS011;22981;43.080;25.550;2023-12-20T13:07:58;7.65;;;6.85;;
37065;SDS011;22981;43.080;25.550;2023-12-20T13:10:26;10.70;;;7.03;;
37065;SDS011;22981;43.080;25.550;2023-12-20T13:12:54;9.85;;;7.72;;
37065;SDS011;22981;43.080;25.550;2023-12-20T13:15:21;13.10;;;8.15;;
37065;SDS011;22981;43.080;25.550;2023-12-20T13:17:49;11.50;;;7.30;;
37065;SDS011;22981;43.080;25.550;2023-12-20T13:20:16;12.03;;;8.38;;
37065;SDS011;22981;43.080;25.550;2023-12-20T13:22:44;13.00;;;8.18;;
37065;SDS011;22981;43.080;25.550;2023-12-20T13:25:12;12.37;;;9.68;;
37065;SDS011;22981;43.080;25.550;2023-12-20T13:27:40;14.60;;;10.32;;
37065;SDS011;22981;43.080;25.550;2023-12-20T13:30:09;13.22;;;7.83;;
37065;SDS011;22981;43.080;25.550;2023-12-20T13:32:37;9.83;;;6.35;;
37065;SDS011;22981;43.080;25.550;2023-12-20T13:35:05;7.95;;;5.83;;
37065;SDS011;22981;43.080;25.550;2023-12-20T13:37:33;8.73;;;5.58;;
37065;SDS011;22981;43.080;25.550;2023-12-20T13:40:01;6.62;;;5.35;;
37065;SDS011;22981;43.080;25.550;2023-12-20T13:42:30;9.98;;;6.60;;
37065;SDS011;22981;43.080;25.550;2023-12-20T13:44:57;10.08;;;6.55;;
37065;SDS011;22981;43.080;25.550;2023-12-20T13:47:25;10.05;;;7.85;;
37065;SDS011;22981;43.080;25.550;2023-12-20T13:49:52;14.80;;;10.23;;
37065;SDS011;22981;43.080;25.550;2023-12-20T13:52:21;12.25;;;8.00;;
37065;SDS011;22981;43.080;25.550;2023-12-20T13:54:49;8.63;;;6.72;;
37065;SDS011;22981;43.080;25.550;2023-12-20T13:57:16;8.95;;;7.00;;
37065;SDS011;22981;43.080;25.550;2023-12-20T13:59:44;13.35;;;9.00;;
37065;SDS011;22981;43.080;25.550;2023-12-20T14:02:11;14.55;;;9.63;;
37065;SDS011;22981;43.080;25.550;2023-12-20T14:04:39;18.27;;;12.00;;
37065;SDS011;22981;43.080;25.550;2023-12-20T14:07:06;18.65;;;13.08;;
37065;SDS011;22981;43.080;25.550;2023-12-20T14:09:35;24.85;;;14.93;;
37065;SDS011;22981;43.080;25.550;2023-12-20T14:12:03;33.25;;;19.55;;
37065;SDS011;22981;43.080;25.550;2023-12-20T14:14:31;14.23;;;9.75;;
37065;SDS011;22981;43.080;25.550;2023-12-20T14:16:58;12.68;;;8.23;;